sensor_id;sensor_type;location;lat;lon;timestamp;pressure;altitude;pressure_sealevel;temperature;humidity
73338;BME280;61575;49.908;35.556;2023-07-31T00:00:11;98734.47;;;19.55;78.77
73338;BME280;61575;49.908;35.556;2023-07-31T00:03:13;98736.03;;;19.51;78.91
73338;BME280;61575;49.908;35.556;2023-07-31T00:06:15;98738.75;;;19.51;78.32
73338;BME280;61575;49.908;35.556;2023-07-31T00:09:17;98734.94;;;19.52;78.90
73338;BME280;61575;49.908;35.556;2023-07-31T00:12:22;98733.78;;;19.48;78.53
73338;BME280;61575;49.908;35.556;2023-07-31T00:15:25;98721.75;;;19.44;78.27
73338;BME280;61575;49.908;35.556;2023-07-31T00:18:26;98715.13;;;19.40;78.48
73338;BME280;61575;49.908;35.556;2023-07-31T00:21:28;98713.72;;;19.37;78.09
73338;BME280;61575;49.908;35.556;2023-07-31T00:24:30;98711.50;;;19.34;77.99
73338;BME280;61575;49.908;35.556;2023-07-31T00:27:32;98718.50;;;19.30;78.28
73338;BME280;61575;49.908;35.556;2023-07-31T00:30:34;98722.06;;;19.31;78.06
73338;BME280;61575;49.908;35.556;2023-07-31T00:33:37;98727.13;;;19.27;77.89
73338;BME280;61575;49.908;35.556;2023-07-31T00:36:39;98716.75;;;19.24;78.09
73338;BME280;61575;49.908;35.556;2023-07-31T00:39:42;98725.66;;;19.19;77.84
73338;BME280;61575;49.908;35.556;2023-07-31T00:42:44;98727.44;;;19.14;77.96
73338;BME280;61575;49.908;35.556;2023-07-31T00:45:46;98720.84;;;19.10;78.05
73338;BME280;61575;49.908;35.556;2023-07-31T00:48:49;98712.59;;;19.05;78.11
73338;BME280;61575;49.908;35.556;2023-07-31T00:51:52;98718.28;;;19.03;78.07
73338;BME280;61575;49.908;35.556;2023-07-31T00:54:56;98717.69;;;19.01;77.65
73338;BME280;61575;49.908;35.556;2023-07-31T00:57:58;98717.69;;;19.01;77.40
73338;BME280;61575;49.908;35.556;2023-07-31T01:01:00;98710.84;;;18.99;77.26
73338;BME280;61575;49.908;35.556;2023-07-31T01:04:02;98712.72;;;18.98;76.96
73338;BME280;61575;49.908;35.556;2023-07-31T01:10:30;98706.47;;;18.98;76.89
73338;BME280;61575;49.908;35.556;2023-07-31T01:13:36;98699.63;;;18.95;77.17
73338;BME280;61575;49.908;35.556;2023-07-31T01:16:38;98695.25;;;18.94;77.25
73338;BME280;61575;49.908;35.556;2023-07-31T01:19:41;98690.88;;;18.93;76.98
73338;BME280;61575;49.908;35.556;2023-07-31T01:26:12;98691.59;;;18.88;77.53
73338;BME280;61575;49.908;35.556;2023-07-31T01:29:29;98696.22;;;18.88;77.26
73338;BME280;61575;49.908;35.556;2023-07-31T01:32:34;98694.56;;;18.87;77.50
73338;BME280;61575;49.908;35.556;2023-07-31T01:35:37;98700.00;;;18.87;77.69
73338;BME280;61575;49.908;35.556;2023-07-31T01:38:40;98705.44;;;18.87;77.41
73338;BME280;61575;49.908;35.556;2023-07-31T01:41:43;98711.47;;;18.89;77.38
73338;BME280;61575;49.908;35.556;2023-07-31T01:44:45;98701.66;;;18.88;77.73
73338;BME280;61575;49.908;35.556;2023-07-31T01:47:46;98708.75;;;18.89;77.56
73338;BME280;61575;49.908;35.556;2023-07-31T01:50:49;98708.75;;;18.89;77.93
73338;BME280;61575;49.908;35.556;2023-07-31T01:53:51;98704.38;;;18.88;78.14
73338;BME280;61575;49.908;35.556;2023-07-31T01:56:53;98706.28;;;18.87;78.47
73338;BME280;61575;49.908;35.556;2023-07-31T01:59:55;98705.94;;;18.84;78.40
73338;BME280;61575;49.908;35.556;2023-07-31T02:02:57;98708.41;;;18.85;78.71
73338;BME280;61575;49.908;35.556;2023-07-31T02:05:59;98707.00;;;18.83;78.61
73338;BME280;61575;49.908;35.556;2023-07-31T02:09:01;98700.50;;;18.84;78.92
73338;BME280;61575;49.908;35.556;2023-07-31T02:12:07;98689.03;;;18.82;78.77
73338;BME280;61575;49.908;35.556;2023-07-31T02:15:10;98687.63;;;18.79;78.81
73338;BME280;61575;49.908;35.556;2023-07-31T02:18:12;98687.63;;;18.79;79.29
73338;BME280;61575;49.908;35.556;2023-07-31T02:21:14;98692.72;;;18.76;79.22
73338;BME280;61575;49.908;35.556;2023-07-31T02:24:16;98698.66;;;18.73;80.24
73338;BME280;61575;49.908;35.556;2023-07-31T02:27:18;98689.75;;;18.77;79.77
73338;BME280;61575;49.908;35.556;2023-07-31T02:30:20;98694.97;;;18.79;79.90
73338;BME280;61575;49.908;35.556;2023-07-31T02:33:22;98689.03;;;18.82;80.17
73338;BME280;61575;49.908;35.556;2023-07-31T02:36:24;98682.84;;;18.86;79.89
73338;BME280;61575;49.908;35.556;2023-07-31T02:39:26;98680.13;;;18.86;79.40
73338;BME280;61575;49.908;35.556;2023-07-31T02:42:28;98682.03;;;18.86;80.08
73338;BME280;61575;49.908;35.556;2023-07-31T02:45:30;98687.63;;;18.79;80.03
73338;BME280;61575;49.908;35.556;2023-07-31T02:48:32;98674.38;;;18.83;79.98
73338;BME280;61575;49.908;35.556;2023-07-31T02:51:34;98679.56;;;18.84;79.89
73338;BME280;61575;49.908;35.556;2023-07-31T02:54:36;98676.59;;;18.86;79.95
73338;BME280;61575;49.908;35.556;2023-07-31T02:57:38;98674.44;;;18.88;80.00
73338;BME280;61575;49.908;35.556;2023-07-31T03:00:43;98680.22;;;18.91;79.56
73338;BME280;61575;49.908;35.556;2023-07-31T03:03:46;98681.06;;;18.92;79.93
73338;BME280;61575;49.908;35.556;2023-07-31T03:06:47;98677.03;;;18.94;79.95
73338;BME280;61575;49.908;35.556;2023-07-31T03:09:49;98679.59;;;19.01;79.99
73338;BME280;61575;49.908;35.556;2023-07-31T03:12:51;98676.47;;;19.09;79.75
73338;BME280;61575;49.908;35.556;2023-07-31T03:15:53;98683.41;;;19.17;79.49
73338;BME280;61575;49.908;35.556;2023-07-31T03:18:55;98677.56;;;19.25;79.09
73338;BME280;61575;49.908;35.556;2023-07-31T03:21:58;98682.06;;;19.31;79.15
73338;BME280;61575;49.908;35.556;2023-07-31T03:25:03;98680.81;;;19.39;79.03
73338;BME280;61575;49.908;35.556;2023-07-31T03:28:05;98678.00;;;19.50;78.77
73338;BME280;61575;49.908;35.556;2023-07-31T03:31:07;98688.72;;;19.57;78.95
73338;BME280;61575;49.908;35.556;2023-07-31T03:34:10;98689.88;;;19.61;79.73
73338;BME280;61575;49.908;35.556;2023-07-31T03:37:12;98695.75;;;19.70;79.26
73338;BME280;61575;49.908;35.556;2023-07-31T03:40:14;98707.84;;;19.79;79.31
73338;BME280;61575;49.908;35.556;2023-07-31T03:43:17;98711.72;;;19.83;78.97
73338;BME280;61575;49.908;35.556;2023-07-31T03:46:19;98723.19;;;19.85;79.60
73338;BME280;61575;49.908;35.556;2023-07-31T03:49:22;98728.38;;;19.86;79.94
73338;BME280;61575;49.908;35.556;2023-07-31T03:52:25;98725.66;;;19.86;79.61
73338;BME280;61575;49.908;35.556;2023-07-31T03:55:27;98731.38;;;19.85;79.53
73338;BME280;61575;49.908;35.556;2023-07-31T03:58:28;98729.22;;;19.87;79.57
73338;BME280;61575;49.908;35.556;2023-07-31T04:01:30;98726.25;;;19.88;79.31
73338;BME280;61575;49.908;35.556;2023-07-31T04:04:32;98730.03;;;19.87;79.18
73338;BME280;61575;49.908;35.556;2023-07-31T04:07:37;98733.41;;;19.95;78.95
73338;BME280;61575;49.908;35.556;2023-07-31T04:10:39;98723.00;;;19.91;79.18
73338;BME280;61575;49.908;35.556;2023-07-31T04:13:41;98726.31;;;19.93;79.29
73338;BME280;61575;49.908;35.556;2023-07-31T04:16:43;98719.88;;;20.00;80.01
73338;BME280;61575;49.908;35.556;2023-07-31T04:19:44;98720.69;;;20.00;79.22
73338;BME280;61575;49.908;35.556;2023-07-31T04:22:46;98719.63;;;20.01;79.70
73338;BME280;61575;49.908;35.556;2023-07-31T04:25:48;98710.88;;;19.99;79.42
73338;BME280;61575;49.908;35.556;2023-07-31T04:28:50;98714.91;;;19.97;80.14
73338;BME280;61575;49.908;35.556;2023-07-31T04:31:52;98708.63;;;19.96;80.54
73338;BME280;61575;49.908;35.556;2023-07-31T04:34:54;98712.84;;;20.04;80.39
73338;BME280;61575;49.908;35.556;2023-07-31T04:37:56;98705.81;;;20.08;80.39
73338;BME280;61575;49.908;35.556;2023-07-31T04:40:58;98701.34;;;20.18;80.54
73338;BME280;61575;49.908;35.556;2023-07-31T04:44:01;98707.19;;;20.27;80.61
73338;BME280;61575;49.908;35.556;2023-07-31T04:47:03;98702.38;;;20.34;80.60
73338;BME280;61575;49.908;35.556;2023-07-31T04:50:05;98695.66;;;20.42;81.19
73338;BME280;61575;49.908;35.556;2023-07-31T04:53:07;98696.53;;;20.47;81.62
73338;BME280;61575;49.908;35.556;2023-07-31T04:56:09;98687.84;;;20.50;80.80
73338;BME280;61575;49.908;35.556;2023-07-31T04:59:11;98688.94;;;20.49;80.63
73338;BME280;61575;49.908;35.556;2023-07-31T05:02:13;98692.81;;;20.53;80.50
73338;BME280;61575;49.908;35.556;2023-07-31T05:05:15;98692.28;;;20.56;80.18
73338;BME280;61575;49.908;35.556;2023-07-31T05:08:17;98704.34;;;20.61;81.17
73338;BME280;61575;49.908;35.556;2023-07-31T05:11:19;98715.06;;;20.67;80.96
73338;BME280;61575;49.908;35.556;2023-07-31T05:14:21;98725.78;;;20.74;80.94
73338;BME280;61575;49.908;35.556;2023-07-31T05:17:23;98727.75;;;20.78;80.85
73338;BME280;61575;49.908;35.556;2023-07-31T05:20:25;98717.91;;;20.77;80.55
73338;BME280;61575;49.908;35.556;2023-07-31T05:23:27;98724.75;;;20.80;80.93
73338;BME280;61575;49.908;35.556;2023-07-31T05:26:29;98717.41;;;20.80;81.28
73338;BME280;61575;49.908;35.556;2023-07-31T05:29:31;98717.47;;;20.85;80.98
73338;BME280;61575;49.908;35.556;2023-07-31T05:32:33;98713.06;;;20.84;81.36
73338;BME280;61575;49.908;35.556;2023-07-31T05:35:35;98724.63;;;20.92;81.21
73338;BME280;61575;49.908;35.556;2023-07-31T05:38:37;98731.81;;;20.98;81.09
73338;BME280;61575;49.908;35.556;2023-07-31T05:41:40;98728.38;;;21.07;81.17
73338;BME280;61575;49.908;35.556;2023-07-31T05:44:43;98725.94;;;21.11;81.14
73338;BME280;61575;49.908;35.556;2023-07-31T05:47:45;98717.59;;;21.23;81.24
73338;BME280;61575;49.908;35.556;2023-07-31T05:50:47;98720.38;;;21.28;80.70
73338;BME280;61575;49.908;35.556;2023-07-31T05:53:49;98732.63;;;21.25;81.11
73338;BME280;61575;49.908;35.556;2023-07-31T05:56:51;98729.66;;;21.27;81.11
73338;BME280;61575;49.908;35.556;2023-07-31T05:59:53;98731.59;;;21.31;81.08
73338;BME280;61575;49.908;35.556;2023-07-31T06:02:55;98740.66;;;21.37;81.22
73338;BME280;61575;49.908;35.556;2023-07-31T06:05:57;98737.38;;;21.35;80.65
73338;BME280;61575;49.908;35.556;2023-07-31T06:08:59;98731.41;;;21.38;81.02
73338;BME280;61575;49.908;35.556;2023-07-31T06:12:01;98727.56;;;21.39;81.26
73338;BME280;61575;49.908;35.556;2023-07-31T06:15:03;98727.09;;;21.47;81.23
73338;BME280;61575;49.908;35.556;2023-07-31T06:18:05;98728.03;;;21.58;80.79
73338;BME280;61575;49.908;35.556;2023-07-31T06:21:10;98731.31;;;21.60;80.25
73338;BME280;61575;49.908;35.556;2023-07-31T06:24:12;98730.53;;;21.64;80.35
73338;BME280;61575;49.908;35.556;2023-07-31T06:27:14;98735.81;;;21.71;81.08
73338;BME280;61575;49.908;35.556;2023-07-31T06:30:16;98726.53;;;21.72;79.79
73338;BME280;61575;49.908;35.556;2023-07-31T06:33:18;98731.84;;;21.89;79.89
73338;BME280;61575;49.908;35.556;2023-07-31T06:36:20;98729.75;;;22.01;78.94
73338;BME280;61575;49.908;35.556;2023-07-31T06:39:22;98729.31;;;22.19;78.92
73338;BME280;61575;49.908;35.556;2023-07-31T06:42:24;98727.97;;;22.27;77.88
73338;BME280;61575;49.908;35.556;2023-07-31T06:45:26;98726.59;;;22.24;77.46
73338;BME280;61575;49.908;35.556;2023-07-31T06:48:28;98725.31;;;22.42;76.78
73338;BME280;61575;49.908;35.556;2023-07-31T06:51:30;98720.81;;;22.68;76.48
73338;BME280;61575;49.908;35.556;2023-07-31T06:54:35;98726.34;;;22.88;75.65
73338;BME280;61575;49.908;35.556;2023-07-31T06:57:37;98719.81;;;23.04;74.29
73338;BME280;61575;49.908;35.556;2023-07-31T07:00:39;98721.75;;;23.04;73.96
73338;BME280;61575;49.908;35.556;2023-07-31T07:03:41;98732.44;;;23.10;74.32
73338;BME280;61575;49.908;35.556;2023-07-31T07:06:43;98727.03;;;23.26;74.42
73338;BME280;61575;49.908;35.556;2023-07-31T07:09:45;98728.13;;;23.25;73.48
73338;BME280;61575;49.908;35.556;2023-07-31T07:12:47;98728.91;;;23.15;73.71
73338;BME280;61575;49.908;35.556;2023-07-31T07:15:50;98732.78;;;23.24;72.97
73338;BME280;61575;49.908;35.556;2023-07-31T07:18:53;98725.91;;;23.22;72.54
73338;BME280;61575;49.908;35.556;2023-07-31T07:22:05;98730.25;;;23.12;72.79
73338;BME280;61575;49.908;35.556;2023-07-31T07:25:07;98733.59;;;23.30;72.32
73338;BME280;61575;49.908;35.556;2023-07-31T07:28:09;98730.88;;;23.50;71.58
73338;BME280;61575;49.908;35.556;2023-07-31T07:31:11;98728.69;;;23.72;71.39
73338;BME280;61575;49.908;35.556;2023-07-31T07:34:13;98727.59;;;24.04;71.44
73338;BME280;61575;49.908;35.556;2023-07-31T07:37:16;98729.22;;;24.15;69.84
73338;BME280;61575;49.908;35.556;2023-07-31T07:40:18;98723.16;;;24.23;69.77
73338;BME280;61575;49.908;35.556;2023-07-31T07:43:20;98721.22;;;24.34;69.23
73338;BME280;61575;49.908;35.556;2023-07-31T07:46:22;98726.94;;;24.48;69.09
73338;BME280;61575;49.908;35.556;2023-07-31T07:49:25;98719.50;;;24.63;68.68
73338;BME280;61575;49.908;35.556;2023-07-31T07:52:27;98724.69;;;24.70;68.36
73338;BME280;61575;49.908;35.556;2023-07-31T07:55:29;98725.47;;;24.81;68.45
73338;BME280;61575;49.908;35.556;2023-07-31T07:58:31;98734.94;;;24.98;68.32
73338;BME280;61575;49.908;35.556;2023-07-31T08:01:33;98732.59;;;25.31;68.92
73338;BME280;61575;49.908;35.556;2023-07-31T08:04:35;98733.09;;;25.38;67.07
73338;BME280;61575;49.908;35.556;2023-07-31T08:07:37;98736.78;;;25.57;65.45
73338;BME280;61575;49.908;35.556;2023-07-31T08:10:39;98725.78;;;26.20;64.24
73338;BME280;61575;49.908;35.556;2023-07-31T08:13:41;98726.34;;;26.70;61.98
73338;BME280;61575;49.908;35.556;2023-07-31T08:16:42;98733.16;;;26.96;59.77
73338;BME280;61575;49.908;35.556;2023-07-31T08:19:45;98731.63;;;27.28;59.05
73338;BME280;61575;49.908;35.556;2023-07-31T08:22:48;98741.31;;;27.44;57.18
73338;BME280;61575;49.908;35.556;2023-07-31T08:25:50;98730.53;;;27.29;56.79
73338;BME280;61575;49.908;35.556;2023-07-31T08:28:52;98737.06;;;27.52;57.32
73338;BME280;61575;49.908;35.556;2023-07-31T08:31:54;98731.47;;;27.76;55.75
73338;BME280;61575;49.908;35.556;2023-07-31T08:34:56;98727.44;;;28.01;57.11
73338;BME280;61575;49.908;35.556;2023-07-31T08:37:58;98721.06;;;28.33;55.78
73338;BME280;61575;49.908;35.556;2023-07-31T08:40:59;98728.97;;;28.39;52.76
73338;BME280;61575;49.908;35.556;2023-07-31T08:44:01;98720.97;;;28.38;51.83
73338;BME280;61575;49.908;35.556;2023-07-31T08:47:04;98723.28;;;28.17;51.69
73338;BME280;61575;49.908;35.556;2023-07-31T08:50:06;98719.13;;;28.33;52.23
73338;BME280;61575;49.908;35.556;2023-07-31T08:53:09;98723.13;;;28.68;50.16
73338;BME280;61575;49.908;35.556;2023-07-31T08:56:11;98726.00;;;28.91;50.38
73338;BME280;61575;49.908;35.556;2023-07-31T08:59:15;98720.53;;;29.13;49.85
73338;BME280;61575;49.908;35.556;2023-07-31T09:02:19;98715.72;;;29.05;48.25
73338;BME280;61575;49.908;35.556;2023-07-31T09:05:23;98717.09;;;28.66;48.53
73338;BME280;61575;49.908;35.556;2023-07-31T09:08:26;98715.00;;;28.31;48.41
73338;BME280;61575;49.908;35.556;2023-07-31T09:11:32;98708.34;;;28.18;48.62
73338;BME280;61575;49.908;35.556;2023-07-31T09:14:34;98722.75;;;28.01;48.87
73338;BME280;61575;49.908;35.556;2023-07-31T09:17:37;98718.75;;;28.07;49.59
73338;BME280;61575;49.908;35.556;2023-07-31T09:20:39;98722.66;;;28.06;49.63
73338;BME280;61575;49.908;35.556;2023-07-31T09:23:42;98726.22;;;28.07;48.12
73338;BME280;61575;49.908;35.556;2023-07-31T09:26:53;98718.56;;;28.04;48.70
73338;BME280;61575;49.908;35.556;2023-07-31T09:29:59;98710.88;;;28.01;48.68
73338;BME280;61575;49.908;35.556;2023-07-31T09:33:04;98718.56;;;28.04;49.53
73338;BME280;61575;49.908;35.556;2023-07-31T09:36:08;98724.63;;;28.19;49.69
73338;BME280;61575;49.908;35.556;2023-07-31T09:39:14;98716.59;;;28.37;49.60
73338;BME280;61575;49.908;35.556;2023-07-31T09:42:26;98713.72;;;28.42;48.97
73338;BME280;61575;49.908;35.556;2023-07-31T09:45:33;98711.69;;;28.47;49.28
73338;BME280;61575;49.908;35.556;2023-07-31T09:48:42;98715.34;;;28.57;49.68
73338;BME280;61575;49.908;35.556;2023-07-31T09:51:44;98715.34;;;28.57;49.42
73338;BME280;61575;49.908;35.556;2023-07-31T09:54:46;98720.16;;;28.65;49.11
73338;BME280;61575;49.908;35.556;2023-07-31T09:57:49;98726.91;;;28.72;48.70
73338;BME280;61575;49.908;35.556;2023-07-31T10:00:50;98716.16;;;28.84;48.30
73338;BME280;61575;49.908;35.556;2023-07-31T10:03:53;98714.94;;;28.91;48.00
73338;BME280;61575;49.908;35.556;2023-07-31T10:06:56;98713.78;;;29.05;48.20
73338;BME280;61575;49.908;35.556;2023-07-31T10:10:00;98724.78;;;29.33;48.67
73338;BME280;61575;49.908;35.556;2023-07-31T10:13:11;98722.81;;;29.33;47.12
73338;BME280;61575;49.908;35.556;2023-07-31T10:16:14;98720.84;;;29.11;45.96
73338;BME280;61575;49.908;35.556;2023-07-31T10:19:19;98715.78;;;29.27;47.17
73338;BME280;61575;49.908;35.556;2023-07-31T10:22:22;98714.41;;;29.38;47.37
73338;BME280;61575;49.908;35.556;2023-07-31T10:25:26;98723.94;;;29.32;47.22
73338;BME280;61575;49.908;35.556;2023-07-31T10:28:29;98724.19;;;29.22;48.65
73338;BME280;61575;49.908;35.556;2023-07-31T10:31:32;98721.50;;;29.31;48.66
73338;BME280;61575;49.908;35.556;2023-07-31T10:34:35;98722.94;;;29.28;48.79
73338;BME280;61575;49.908;35.556;2023-07-31T10:37:40;98717.38;;;29.06;48.98
73338;BME280;61575;49.908;35.556;2023-07-31T10:40:43;98715.22;;;29.03;48.80
73338;BME280;61575;49.908;35.556;2023-07-31T10:43:46;98716.88;;;29.04;49.59
73338;BME280;61575;49.908;35.556;2023-07-31T10:46:49;98715.13;;;28.80;49.25
73338;BME280;61575;49.908;35.556;2023-07-31T10:49:51;98711.56;;;28.80;49.65
73338;BME280;61575;49.908;35.556;2023-07-31T10:52:56;98710.84;;;28.74;49.68
73338;BME280;61575;49.908;35.556;2023-07-31T10:56:09;98708.16;;;28.83;50.42
73338;BME280;61575;49.908;35.556;2023-07-31T10:59:14;98706.94;;;29.03;50.12
73338;BME280;61575;49.908;35.556;2023-07-31T11:02:26;98703.28;;;29.30;49.61
73338;BME280;61575;49.908;35.556;2023-07-31T11:08:52;98707.97;;;29.29;49.16
73338;BME280;61575;49.908;35.556;2023-07-31T11:11:54;98706.28;;;29.42;49.08
73338;BME280;61575;49.908;35.556;2023-07-31T11:14:57;98698.25;;;29.32;48.23
73338;BME280;61575;49.908;35.556;2023-07-31T11:18:00;98699.00;;;29.46;48.86
73338;BME280;61575;49.908;35.556;2023-07-31T11:21:05;98699.06;;;29.99;48.79
73338;BME280;61575;49.908;35.556;2023-07-31T11:24:07;98691.22;;;30.32;47.63
73338;BME280;61575;49.908;35.556;2023-07-31T11:27:09;98696.84;;;30.58;47.30
73338;BME280;61575;49.908;35.556;2023-07-31T11:30:11;98685.00;;;30.66;47.29
73338;BME280;61575;49.908;35.556;2023-07-31T11:33:13;98692.41;;;30.88;47.69
73338;BME280;61575;49.908;35.556;2023-07-31T11:36:17;98689.97;;;31.04;46.96
73338;BME280;61575;49.908;35.556;2023-07-31T11:39:20;98685.28;;;31.22;47.27
73338;BME280;61575;49.908;35.556;2023-07-31T11:42:22;98680.88;;;31.29;47.09
73338;BME280;61575;49.908;35.556;2023-07-31T11:45:25;98679.56;;;31.27;47.38
73338;BME280;61575;49.908;35.556;2023-07-31T11:48:36;98667.50;;;31.14;46.96
73338;BME280;61575;49.908;35.556;2023-07-31T11:51:38;98674.44;;;30.86;48.28
73338;BME280;61575;49.908;35.556;2023-07-31T11:54:40;98672.28;;;30.65;48.96
73338;BME280;61575;49.908;35.556;2023-07-31T11:57:43;98672.38;;;30.52;49.32
73338;BME280;61575;49.908;35.556;2023-07-31T12:00:47;98671.06;;;30.40;49.74
73338;BME280;61575;49.908;35.556;2023-07-31T12:03:50;98661.53;;;30.72;49.93
73338;BME280;61575;49.908;35.556;2023-07-31T12:06:53;98655.50;;;30.62;50.09
73338;BME280;61575;49.908;35.556;2023-07-31T12:09:59;98658.00;;;30.41;50.08
73338;BME280;61575;49.908;35.556;2023-07-31T12:13:12;98665.41;;;30.14;50.53
73338;BME280;61575;49.908;35.556;2023-07-31T12:16:26;98673.28;;;29.90;50.85
73338;BME280;61575;49.908;35.556;2023-07-31T12:19:29;98669.91;;;29.71;51.81
73338;BME280;61575;49.908;35.556;2023-07-31T12:22:32;98660.72;;;29.62;51.75
73338;BME280;61575;49.908;35.556;2023-07-31T12:25:34;98644.25;;;29.57;51.87
73338;BME280;61575;49.908;35.556;2023-07-31T12:28:47;98651.72;;;29.78;52.22
73338;BME280;61575;49.908;35.556;2023-07-31T12:31:49;98649.00;;;29.87;52.09
73338;BME280;61575;49.908;35.556;2023-07-31T12:34:51;98635.25;;;30.04;52.38
73338;BME280;61575;49.908;35.556;2023-07-31T12:37:53;98652.97;;;30.03;51.69
73338;BME280;61575;49.908;35.556;2023-07-31T12:40:55;98644.00;;;29.98;51.72
73338;BME280;61575;49.908;35.556;2023-07-31T12:43:58;98644.69;;;30.03;52.15
73338;BME280;61575;49.908;35.556;2023-07-31T12:47:00;98643.81;;;29.94;50.88
73338;BME280;61575;49.908;35.556;2023-07-31T12:50:01;98630.16;;;29.98;51.13
73338;BME280;61575;49.908;35.556;2023-07-31T12:53:04;98642.31;;;30.28;50.68
73338;BME280;61575;49.908;35.556;2023-07-31T12:56:07;98627.47;;;30.81;49.81
73338;BME280;61575;49.908;35.556;2023-07-31T12:59:10;98617.53;;;30.88;49.77
73338;BME280;61575;49.908;35.556;2023-07-31T13:02:12;98625.84;;;30.79;49.97
73338;BME280;61575;49.908;35.556;2023-07-31T13:05:14;98627.72;;;30.53;49.13
73338;BME280;61575;49.908;35.556;2023-07-31T13:08:16;98628.81;;;30.35;50.18
73338;BME280;61575;49.908;35.556;2023-07-31T13:11:19;98631.38;;;30.14;51.19
73338;BME280;61575;49.908;35.556;2023-07-31T13:14:21;98633.09;;;30.01;51.45
73338;BME280;61575;49.908;35.556;2023-07-31T13:17:23;98637.81;;;30.01;51.74
73338;BME280;61575;49.908;35.556;2023-07-31T13:20:25;98629.72;;;30.04;52.32
73338;BME280;61575;49.908;35.556;2023-07-31T13:23:27;98627.88;;;30.00;51.72
73338;BME280;61575;49.908;35.556;2023-07-31T13:26:29;98620.53;;;29.95;52.04
73338;BME280;61575;49.908;35.556;2023-07-31T13:29:31;98630.44;;;29.88;51.71
73338;BME280;61575;49.908;35.556;2023-07-31T13:32:33;98631.03;;;29.76;52.13
73338;BME280;61575;49.908;35.556;2023-07-31T13:35:40;98630.97;;;29.67;52.20
73338;BME280;61575;49.908;35.556;2023-07-31T13:38:42;98627.16;;;29.55;52.70
73338;BME280;61575;49.908;35.556;2023-07-31T13:41:44;98628.72;;;29.47;53.70
73338;BME280;61575;49.908;35.556;2023-07-31T13:44:46;98627.41;;;29.44;53.98
73338;BME280;61575;49.908;35.556;2023-07-31T13:47:50;98631.19;;;29.48;54.54
73338;BME280;61575;49.908;35.556;2023-07-31T13:50:53;98633.38;;;29.38;54.12
73338;BME280;61575;49.908;35.556;2023-07-31T13:53:54;98629.16;;;29.40;53.64
73338;BME280;61575;49.908;35.556;2023-07-31T13:56:56;98626.31;;;29.32;53.28
73338;BME280;61575;49.908;35.556;2023-07-31T13:59:58;98630.91;;;29.36;53.26
73338;BME280;61575;49.908;35.556;2023-07-31T14:03:00;98623.13;;;29.38;52.71
73338;BME280;61575;49.908;35.556;2023-07-31T14:06:03;98614.50;;;29.40;52.46
73338;BME280;61575;49.908;35.556;2023-07-31T14:09:05;98614.63;;;29.35;52.24
73338;BME280;61575;49.908;35.556;2023-07-31T14:12:08;98619.22;;;29.17;52.35
73338;BME280;61575;49.908;35.556;2023-07-31T14:15:10;98617.91;;;29.14;52.67
73338;BME280;61575;49.908;35.556;2023-07-31T14:18:13;98624.94;;;28.84;53.05
73338;BME280;61575;49.908;35.556;2023-07-31T14:21:15;98638.38;;;28.91;53.61
73338;BME280;61575;49.908;35.556;2023-07-31T14:24:17;98634.19;;;28.66;54.47
73338;BME280;61575;49.908;35.556;2023-07-31T14:27:19;98637.50;;;28.54;53.88
73338;BME280;61575;49.908;35.556;2023-07-31T14:30:21;98639.25;;;28.37;54.18
73338;BME280;61575;49.908;35.556;2023-07-31T14:33:23;98649.63;;;27.85;55.38
73338;BME280;61575;49.908;35.556;2023-07-31T14:36:25;98644.13;;;27.99;55.14
73338;BME280;61575;49.908;35.556;2023-07-31T14:39:27;98644.44;;;27.97;55.09
73338;BME280;61575;49.908;35.556;2023-07-31T14:42:29;98655.66;;;27.87;55.62
73338;BME280;61575;49.908;35.556;2023-07-31T14:45:31;98649.16;;;27.64;55.71
73338;BME280;61575;49.908;35.556;2023-07-31T14:48:32;98651.09;;;27.64;56.19
73338;BME280;61575;49.908;35.556;2023-07-31T14:51:34;98647.19;;;27.65;55.79
73338;BME280;61575;49.908;35.556;2023-07-31T14:54:36;98646.19;;;27.60;56.08
73338;BME280;61575;49.908;35.556;2023-07-31T14:57:38;98655.16;;;27.52;56.16
73338;BME280;61575;49.908;35.556;2023-07-31T15:00:40;98662.97;;;27.45;56.64
73338;BME280;61575;49.908;35.556;2023-07-31T15:03:42;98657.91;;;27.52;56.52
73338;BME280;61575;49.908;35.556;2023-07-31T15:06:44;98656.81;;;27.35;56.40
73338;BME280;61575;49.908;35.556;2023-07-31T15:09:47;98662.75;;;27.42;56.99
73338;BME280;61575;49.908;35.556;2023-07-31T15:12:49;98651.00;;;27.36;56.90
73338;BME280;61575;49.908;35.556;2023-07-31T15:15:50;98654.34;;;27.33;57.09
73338;BME280;61575;49.908;35.556;2023-07-31T15:18:52;98656.31;;;27.33;57.48
73338;BME280;61575;49.908;35.556;2023-07-31T15:21:54;98654.44;;;27.28;57.28
73338;BME280;61575;49.908;35.556;2023-07-31T15:24:56;98662.19;;;27.26;57.74
73338;BME280;61575;49.908;35.556;2023-07-31T15:27:58;98659.13;;;27.27;57.58
73338;BME280;61575;49.908;35.556;2023-07-31T15:31:00;98657.81;;;27.25;58.05
73338;BME280;61575;49.908;35.556;2023-07-31T15:34:02;98666.06;;;27.25;58.10
73338;BME280;61575;49.908;35.556;2023-07-31T15:37:05;98651.16;;;27.26;58.47
73338;BME280;61575;49.908;35.556;2023-07-31T15:40:07;98654.75;;;27.26;58.38
73338;BME280;61575;49.908;35.556;2023-07-31T15:43:09;98654.44;;;27.28;58.51
73338;BME280;61575;49.908;35.556;2023-07-31T15:46:11;98658.91;;;27.24;58.29
73338;BME280;61575;49.908;35.556;2023-07-31T15:49:15;98659.81;;;27.19;58.66
73338;BME280;61575;49.908;35.556;2023-07-31T15:52:20;98659.94;;;27.09;58.52
73338;BME280;61575;49.908;35.556;2023-07-31T15:55:22;98656.97;;;27.06;58.62
73338;BME280;61575;49.908;35.556;2023-07-31T15:58:25;98662.34;;;26.97;59.13
73338;BME280;61575;49.908;35.556;2023-07-31T16:01:28;98658.22;;;26.94;59.14
73338;BME280;61575;49.908;35.556;2023-07-31T16:04:30;98659.72;;;26.87;59.18